Elmore, MN (56027)

8:03 PM CDT on July 06, 2015 (GMT -0500)
Faribault County Law Enforcement Center | | Change Station
CLOSE
Current Station
Personal Weather Station
Location: Blue Earth, MN
Elevation: 1079 ft
Nearby Weather Stations

Elev 1079 ft 43.65 °N, 94.10 °W | Updated 3 minutes ago

Clear
Clear
70.4 °F
Feels Like 73 °F
N
3.0
Wind Variable Wind from WNW
Gusts 12.0 mph

Today
High -- | Low -- °F
--% Chance of Precip.
Yesterday
High -- | Low -- °F
Precip. -- in
5:42 AM 8:59 PM
Waning Gibbous, 70% visible
Pressure 29.99 in
Visibility 8.0 miles
Clouds Clear
Heat Index 73 °F
Dew Point 61 °F
Humidity 73%
Rainfall 1.08 in
Snow Depth Not available.
UV 0 out of 12
Pollen .60 out of 12
Air Quality Not available.
Flu Activity Not available.
METAR KFRM 070055Z AUTO 34015G20KT 8SM CLR 21/11 A2999 RMK AO1

More Conditions Fewer Conditions

Pressure 29.99 in
Visibility 8.0 miles
Clouds Clear
Heat Index 73 °F
Dew Point 61 °F
Humidity 73%
Rainfall 1.08 in
Snow Depth Not available.
UV 0 out of 12
Pollen .60 out of 12
Air Quality Not available.
Flu Activity Not available.
METAR KFRM 070055Z AUTO 34015G20KT 8SM CLR 21/11 A2999 RMK AO1

More Conditions Fewer Conditions

10-Day Weather Forecast

×

Almanac

Astronomy

Jul. 06, 2015 Rise Set
Actual Time
Civil Twilight
Nautical Twilight
Astronomical Twilight
Moon
Length of Visible Light
Length of Day
Tomorrow will be .
, % of the Moon is Illuminated

Today's Extremes

State Highs State Lows

Community

WunderPhotos

Upload Photos

1,835,688 photos uploaded!

WunderBlogs® & News

Nearby

Air Quality

  Air Quality AQ Index Pollutant
Not available.

Snow Depth

Station Depth Elevation

Earthquake Activity

City Distance Mag. Time & Date
Minimum magnitude displayed is 2.5.

Coastal Water Temperatures

Place Temperature

Stations

Nearby Weather Stations

Station Location Temp. Windchill Dew Point Humidity Wind Precip. Elev Updated Type